createdAt,value
2019-05-09T00:02:14.542Z,8.96
2019-05-09T00:05:28.041Z,8.81
2019-05-09T00:08:43.945Z,8.81
2019-05-09T00:11:57.329Z,8.77
2019-05-09T00:15:13.654Z,8.85
2019-05-09T00:18:27.274Z,8.88
2019-05-09T00:21:43.713Z,8.76
2019-05-09T00:24:57.229Z,8.68
2019-05-09T00:28:10.698Z,8.67
2019-05-09T00:31:35.762Z,8.64
2019-05-09T00:34:56.456Z,8.70
2019-05-09T00:38:10.210Z,8.64
2019-05-09T00:41:23.984Z,8.59
2019-05-09T00:44:39.756Z,8.57
2019-05-09T00:47:53.939Z,8.53
2019-05-09T00:51:07.593Z,8.49
2019-05-09T00:54:21.254Z,8.56
2019-05-09T00:57:34.998Z,8.52
2019-05-09T01:00:48.665Z,8.53
2019-05-09T01:04:04.379Z,8.56
2019-05-09T01:07:17.708Z,8.59
2019-05-09T01:10:31.173Z,8.55
2019-05-09T01:13:44.657Z,8.61
2019-05-09T01:16:58.129Z,8.52
2019-05-09T01:20:12.004Z,8.58
2019-05-09T01:23:25.726Z,8.57
2019-05-09T01:26:39.299Z,8.54
2019-05-09T01:29:53.590Z,8.67
2019-05-09T01:33:26.755Z,8.64
2019-05-09T01:36:58.554Z,8.69
2019-05-09T01:40:13.308Z,8.73
2019-05-09T01:43:27.177Z,8.68
2019-05-09T01:46:40.673Z,8.68
2019-05-09T01:49:54.153Z,8.64
2019-05-09T01:53:07.930Z,8.55
2019-05-09T01:56:23.516Z,8.53
2019-05-09T01:59:36.805Z,8.61
2019-05-09T02:02:50.516Z,8.56
2019-05-09T02:06:04.608Z,8.59
2019-05-09T02:09:18.436Z,8.61
2019-05-09T02:12:33.864Z,8.68
2019-05-09T02:16:14.156Z,8.57
2019-05-09T02:19:33.466Z,8.55
2019-05-09T02:22:46.987Z,8.47
2019-05-09T02:26:00.563Z,8.50
2019-05-09T02:29:14.070Z,8.44
2019-05-09T02:32:27.919Z,8.38
2019-05-09T02:35:55.744Z,8.37
2019-05-09T02:38:59.067Z,8.35
2019-05-09T02:42:14.338Z,8.33
2019-05-09T02:45:32.706Z,8.35
2019-05-09T02:48:49.363Z,8.42
2019-05-09T02:52:01.763Z,8.49
2019-05-09T02:55:18.235Z,8.51
2019-05-09T02:58:35.462Z,8.55
2019-05-09T03:02:03.085Z,8.59
2019-05-09T03:05:19.575Z,8.59
2019-05-09T03:08:32.667Z,8.56
2019-05-09T03:11:48.511Z,8.46
2019-05-09T03:15:01.852Z,8.50
2019-05-09T03:18:18.136Z,8.49
2019-05-09T03:21:39.027Z,8.47
2019-05-09T03:24:51.736Z,8.42
2019-05-09T03:28:12.146Z,8.33
2019-05-09T03:31:29.855Z,8.31
2019-05-09T03:34:42.125Z,8.36
2019-05-09T03:38:04.646Z,8.34
2019-05-09T03:41:18.127Z,8.34
2019-05-09T03:44:32.402Z,8.27
2019-05-09T03:47:50.332Z,8.25
2019-05-09T03:51:03.843Z,8.31
2019-05-09T03:54:18.341Z,8.38
2019-05-09T03:57:37.163Z,8.43
2019-05-09T04:00:50.422Z,8.42
2019-05-09T04:04:04.209Z,8.42
2019-05-09T04:07:18.660Z,8.32
2019-05-09T04:10:32.300Z,8.31
2019-05-09T04:13:58.113Z,8.37
2019-05-09T04:17:12.283Z,8.38
2019-05-09T04:20:27.709Z,8.36
2019-05-09T04:23:41.454Z,8.23
2019-05-09T04:27:07.966Z,8.12
2019-05-09T04:30:21.434Z,8.10
2019-05-09T04:33:34.945Z,8.05
2019-05-09T04:36:48.704Z,7.87
2019-05-09T04:40:03.518Z,7.80
2019-05-09T04:43:26.797Z,7.82
2019-05-09T04:46:32.542Z,7.79
2019-05-09T04:49:47.924Z,7.74
2019-05-09T04:53:01.981Z,7.65
2019-05-09T04:56:20.901Z,7.68
2019-05-09T04:59:34.448Z,7.70
2019-05-09T05:02:49.507Z,7.78
2019-05-09T05:06:03.187Z,7.82
2019-05-09T05:09:20.297Z,7.92
2019-05-09T05:16:39.234Z,8.14
2019-05-09T05:19:52.326Z,8.20
2019-05-09T05:23:14.801Z,8.45
2019-05-09T05:26:28.295Z,8.64
2019-05-09T05:29:41.780Z,8.91
2019-05-09T05:33:04.572Z,9.11
2019-05-09T05:36:18.208Z,9.22
2019-05-09T05:39:31.663Z,9.40
2019-05-09T05:42:48.387Z,9.64
2019-05-09T05:46:24.580Z,9.70
2019-05-09T05:49:38.562Z,9.93
2019-05-09T05:52:52.243Z,10.12
2019-05-09T05:56:08.385Z,10.16
2019-05-09T05:59:21.603Z,10.18
2019-05-09T06:02:35.444Z,10.33
2019-05-09T06:05:51.703Z,10.51
2019-05-09T06:09:08.299Z,10.44
2019-05-09T06:12:21.800Z,10.60
2019-05-09T06:15:37.954Z,10.61
2019-05-09T06:18:51.583Z,10.44
2019-05-09T06:22:05.352Z,10.24
2019-05-09T06:25:21.242Z,10.24
2019-05-09T06:28:35.005Z,10.20
2019-05-09T06:31:48.689Z,10.05
2019-05-09T06:35:02.524Z,9.84
2019-05-09T06:38:18.626Z,9.77
2019-05-09T06:41:31.511Z,9.80
2019-05-09T06:45:04.899Z,9.81
2019-05-09T06:48:18.326Z,9.72
2019-05-09T06:51:31.809Z,9.69
2019-05-09T06:54:45.571Z,9.75
2019-05-09T06:58:00.966Z,9.85
2019-05-09T07:01:41.389Z,9.98
2019-05-09T07:05:07.642Z,10.16
2019-05-09T07:08:30.999Z,10.19
2019-05-09T07:11:43.191Z,10.08
2019-05-09T07:14:58.181Z,10.03
2019-05-09T07:18:11.895Z,10.07
2019-05-09T07:21:45.141Z,9.95
2019-05-09T07:25:06.436Z,10.04
2019-05-09T07:28:18.287Z,10.07
2019-05-09T07:31:47.919Z,10.28
2019-05-09T07:35:01.600Z,10.49
2019-05-09T07:38:17.765Z,10.37
2019-05-09T07:41:33.682Z,10.43
2019-05-09T07:44:52.075Z,10.58
2019-05-09T07:48:02.238Z,10.84
2019-05-09T07:51:18.078Z,11.05
2019-05-09T07:54:31.658Z,11.32
2019-05-09T07:57:53.635Z,11.75
2019-05-09T08:01:01.641Z,11.78
2019-05-09T08:04:15.310Z,11.54
2019-05-09T08:07:29.178Z,11.56
2019-05-09T08:10:42.782Z,11.35
2019-05-09T08:13:57.523Z,11.19
2019-05-09T08:17:11.138Z,11.07
2019-05-09T08:20:24.621Z,11.01
2019-05-09T08:23:38.192Z,10.97
2019-05-09T08:26:51.691Z,10.95
2019-05-09T08:30:07.882Z,10.84
2019-05-09T08:33:21.226Z,10.87
2019-05-09T08:36:34.783Z,10.88
2019-05-09T08:39:48.600Z,10.99
2019-05-09T08:43:02.392Z,10.89
2019-05-09T08:46:18.138Z,10.82
2019-05-09T08:49:51.120Z,10.70
2019-05-09T08:53:05.017Z,10.44
2019-05-09T08:56:18.572Z,10.48
2019-05-09T08:59:32.470Z,10.59
2019-05-09T09:02:48.201Z,10.62
2019-05-09T09:06:01.945Z,10.56
2019-05-09T09:09:17.899Z,10.50
2019-05-09T09:12:34.379Z,10.45
2019-05-09T09:16:04.933Z,10.36
2019-05-09T09:19:01.642Z,10.28
2019-05-09T09:22:15.102Z,10.43
2019-05-09T09:25:28.918Z,10.55
2019-05-09T09:28:42.344Z,10.62
2019-05-09T09:31:57.680Z,10.60
2019-05-09T09:35:11.763Z,10.91
2019-05-09T09:38:25.564Z,11.08
2019-05-09T09:41:39.049Z,11.18
2019-05-09T09:44:52.654Z,11.22
2019-05-09T09:48:08.611Z,11.27
2019-05-09T09:51:21.773Z,11.22
2019-05-09T09:54:38.337Z,11.24
2019-05-09T09:57:51.317Z,11.38
2019-05-09T10:01:22.937Z,11.52
2019-05-09T10:04:37.526Z,11.55
2019-05-09T10:07:51.521Z,11.58
2019-05-09T10:11:07.856Z,11.30
2019-05-09T10:14:28.429Z,11.33
2019-05-09T10:17:48.515Z,11.34
2019-05-09T10:21:09.558Z,11.33
2019-05-09T10:24:23.460Z,11.27
2019-05-09T10:27:38.746Z,11.38
2019-05-09T10:30:52.434Z,11.30
2019-05-09T10:34:06.146Z,11.48
2019-05-09T10:37:20.050Z,11.73
2019-05-09T10:40:33.852Z,11.84
2019-05-09T10:44:19.546Z,12.02
2019-05-09T10:47:33.185Z,12.03
2019-05-09T10:50:54.263Z,12.00
2019-05-09T10:54:03.331Z,12.10
2019-05-09T10:57:16.950Z,11.82
2019-05-09T11:00:30.809Z,11.92
2019-05-09T11:03:44.329Z,12.05
2019-05-09T11:06:58.462Z,12.23
2019-05-09T11:10:24.537Z,12.44
2019-05-09T11:13:28.734Z,12.43
2019-05-09T11:16:46.476Z,12.43
2019-05-09T11:19:58.829Z,12.52
2019-05-09T11:23:12.518Z,12.37
2019-05-09T11:26:28.545Z,12.34
2019-05-09T11:29:42.410Z,12.04
2019-05-09T11:32:56.032Z,11.88
2019-05-09T11:36:10.013Z,11.82
2019-05-09T11:39:35.773Z,11.80
2019-05-09T11:42:40.307Z,11.80
2019-05-09T11:45:54.125Z,11.79
2019-05-09T11:49:08.702Z,11.70
2019-05-09T11:52:22.366Z,11.59
2019-05-09T11:55:42.407Z,11.75
2019-05-09T11:58:51.464Z,11.71
2019-05-09T12:02:05.468Z,11.74
2019-05-09T12:05:19.423Z,11.88
2019-05-09T12:08:32.956Z,11.81
2019-05-09T12:11:48.255Z,11.74
2019-05-09T12:16:37.956Z,11.71
2019-05-09T12:19:50.914Z,11.62
2019-05-09T12:23:04.976Z,11.77
2019-05-09T12:26:18.819Z,11.91
2019-05-09T12:29:32.335Z,12.02
2019-05-09T12:32:45.817Z,12.03
2019-05-09T12:35:59.516Z,12.06
2019-05-09T12:39:13.526Z,12.21
2019-05-09T12:42:28.936Z,12.41
2019-05-09T12:45:43.334Z,12.59
2019-05-09T12:48:59.184Z,12.54
2019-05-09T12:52:12.216Z,12.64
2019-05-09T12:55:27.581Z,12.66
2019-05-09T12:58:41.262Z,12.75
2019-05-09T13:01:57.860Z,13.04
2019-05-09T13:05:11.313Z,13.32
2019-05-09T13:08:27.762Z,13.57
2019-05-09T13:11:41.475Z,13.77
2019-05-09T13:14:57.836Z,13.59
2019-05-09T13:18:21.729Z,13.33
2019-05-09T13:21:29.724Z,13.10
2019-05-09T13:24:42.268Z,13.26
2019-05-09T13:27:58.232Z,13.32
2019-05-09T13:31:11.843Z,13.60
2019-05-09T13:34:28.180Z,13.97
2019-05-09T13:37:41.096Z,14.37
2019-05-09T13:40:58.216Z,14.50
2019-05-09T13:44:13.856Z,14.65
2019-05-09T13:47:27.997Z,14.49
2019-05-09T13:50:41.832Z,14.14
2019-05-09T13:53:55.795Z,13.63
2019-05-09T13:57:11.312Z,13.41
2019-05-09T14:00:24.832Z,13.29
2019-05-09T14:03:38.821Z,13.40
2019-05-09T14:06:52.556Z,13.54
2019-05-09T14:10:09.010Z,13.71
2019-05-09T14:13:23.534Z,14.04
2019-05-09T14:16:38.827Z,14.29
2019-05-09T14:19:52.606Z,14.64
2019-05-09T14:23:11.185Z,14.69
2019-05-09T14:26:21.574Z,14.80
2019-05-09T14:29:35.066Z,14.82
2019-05-09T14:32:49.828Z,15.08
2019-05-09T14:36:03.902Z,15.70
2019-05-09T14:39:18.151Z,16.25
2019-05-09T14:42:31.726Z,16.46
2019-05-09T14:45:45.463Z,16.14
2019-05-09T14:48:59.582Z,16.07
2019-05-09T14:52:14.126Z,16.47
2019-05-09T14:55:28.543Z,16.62
2019-05-09T14:58:42.318Z,16.58
2019-05-09T15:01:58.887Z,16.15
2019-05-09T15:05:11.532Z,15.81
2019-05-09T15:08:25.021Z,15.54
2019-05-09T15:11:39.445Z,15.41
2019-05-09T15:14:53.411Z,15.28
2019-05-09T15:18:08.131Z,15.24
2019-05-09T15:21:22.133Z,15.20
2019-05-09T15:24:35.766Z,15.46
2019-05-09T15:27:49.709Z,16.22
2019-05-09T15:31:03.890Z,16.58
2019-05-09T15:34:18.567Z,16.91
2019-05-09T15:37:32.232Z,17.24
2019-05-09T15:40:48.183Z,16.77
2019-05-09T15:44:10.220Z,16.25
2019-05-09T15:47:28.198Z,15.84
2019-05-09T15:50:41.898Z,15.54
2019-05-09T15:53:57.598Z,15.18
2019-05-09T15:57:13.322Z,15.13
2019-05-09T16:00:28.379Z,15.01
2019-05-09T16:03:42.247Z,14.89
2019-05-09T16:06:55.783Z,15.12
2019-05-09T16:10:09.575Z,15.35
2019-05-09T16:13:23.087Z,15.23
2019-05-09T16:16:38.600Z,15.21
2019-05-09T16:19:52.116Z,15.27
2019-05-09T16:23:08.352Z,15.36
2019-05-09T16:26:21.168Z,15.26
2019-05-09T16:29:34.811Z,15.09
2019-05-09T16:32:48.419Z,14.86
2019-05-09T16:36:02.031Z,14.87
2019-05-09T16:39:17.941Z,14.89
2019-05-09T16:42:31.489Z,14.81
2019-05-09T16:45:47.530Z,14.73
2019-05-09T16:49:00.834Z,14.76
2019-05-09T16:52:14.589Z,14.94
2019-05-09T16:55:32.499Z,14.94
2019-05-09T16:58:46.516Z,14.69
2019-05-09T17:02:16.883Z,14.51
2019-05-09T17:05:17.447Z,14.55
2019-05-09T17:08:31.255Z,14.40
2019-05-09T17:11:44.969Z,14.29
2019-05-09T17:14:59.710Z,14.38
2019-05-09T17:18:13.381Z,14.36
2019-05-09T17:21:37.522Z,14.35
2019-05-09T17:24:50.733Z,14.17
2019-05-09T17:28:04.347Z,14.03
2019-05-09T17:31:18.313Z,13.52
2019-05-09T17:34:32.259Z,13.40
2019-05-09T17:37:48.000Z,13.39
2019-05-09T17:41:01.615Z,13.29
2019-05-09T17:44:15.119Z,13.21
2019-05-09T17:47:29.083Z,13.17
2019-05-09T17:50:42.670Z,13.33
2019-05-09T17:53:58.353Z,13.46
2019-05-09T17:57:12.126Z,13.57
2019-05-09T18:00:27.966Z,13.62
2019-05-09T18:03:41.655Z,13.57
2019-05-09T18:06:58.215Z,13.40
2019-05-09T18:10:12.858Z,13.24
2019-05-09T18:13:29.659Z,13.03
2019-05-09T18:16:41.956Z,12.90
2019-05-09T18:19:55.532Z,12.81
2019-05-09T18:23:09.211Z,12.75
2019-05-09T18:26:23.070Z,12.57
2019-05-09T18:29:38.051Z,12.52
2019-05-09T18:33:00.957Z,12.48
2019-05-09T18:36:14.955Z,12.39
2019-05-09T18:39:28.491Z,12.26
2019-05-09T18:42:42.138Z,12.20
2019-05-09T18:45:57.718Z,12.06
2019-05-09T18:49:11.249Z,11.88
2019-05-09T18:52:24.858Z,11.85
2019-05-09T18:55:39.106Z,11.75
2019-05-09T18:58:52.577Z,11.75
2019-05-09T19:02:06.302Z,11.73
2019-05-09T19:05:20.312Z,11.70
2019-05-09T19:08:34.225Z,11.65
2019-05-09T19:11:47.853Z,11.65
2019-05-09T19:15:03.659Z,11.71
2019-05-09T19:18:37.236Z,11.55
2019-05-09T19:21:56.691Z,11.58
2019-05-09T19:25:10.687Z,11.58
2019-05-09T19:28:24.555Z,11.50
2019-05-09T19:31:38.731Z,11.44
2019-05-09T19:34:52.866Z,11.40
2019-05-09T19:38:06.390Z,11.25
2019-05-09T19:41:20.190Z,11.14
2019-05-09T19:44:34.116Z,11.11
2019-05-09T19:47:47.721Z,11.13
2019-05-09T19:51:01.181Z,11.04
2019-05-09T19:54:14.756Z,11.01
2019-05-09T19:57:28.346Z,10.92
2019-05-09T20:00:41.833Z,11.02
2019-05-09T20:03:55.438Z,11.04
2019-05-09T20:07:08.948Z,11.16
2019-05-09T20:10:40.782Z,11.11
2019-05-09T20:14:26.572Z,11.03
2019-05-09T20:17:40.062Z,11.03
2019-05-09T20:20:53.801Z,11.00
2019-05-09T20:24:09.346Z,10.97
2019-05-09T20:27:23.385Z,10.94
2019-05-09T20:30:36.873Z,10.86
2019-05-09T20:33:50.355Z,10.81
2019-05-09T20:37:04.075Z,10.77
2019-05-09T20:40:17.656Z,10.70
2019-05-09T20:43:31.560Z,10.66
2019-05-09T20:46:45.172Z,10.64
2019-05-09T20:49:58.895Z,10.60
2019-05-09T20:53:12.392Z,10.63
2019-05-09T20:56:25.990Z,10.65
2019-05-09T20:59:39.474Z,10.68
2019-05-09T21:02:52.987Z,10.67
2019-05-09T21:06:06.467Z,10.64
2019-05-09T21:09:20.058Z,10.63
2019-05-09T21:16:36.281Z,10.73
2019-05-09T21:19:50.029Z,10.68
2019-05-09T21:23:03.524Z,10.76
2019-05-09T21:26:17.098Z,10.84
2019-05-09T21:29:31.209Z,10.88
2019-05-09T21:32:44.993Z,10.94
2019-05-09T21:35:58.489Z,10.99
2019-05-09T21:39:11.973Z,10.97
2019-05-09T21:42:25.563Z,11.08
2019-05-09T21:45:39.347Z,11.12
2019-05-09T21:48:53.443Z,11.15
2019-05-09T21:52:06.935Z,11.20
2019-05-09T21:55:20.813Z,11.18
2019-05-09T21:58:34.307Z,11.16
2019-05-09T22:01:47.988Z,11.14
2019-05-09T22:05:01.683Z,11.16
2019-05-09T22:08:15.368Z,11.14
2019-05-09T22:11:28.848Z,11.13
2019-05-09T22:14:42.697Z,11.12
2019-05-09T22:17:56.312Z,11.10
2019-05-09T22:21:20.478Z,11.13
2019-05-09T22:24:33.958Z,11.09
2019-05-09T22:27:48.012Z,11.07
2019-05-09T22:31:01.483Z,11.09
2019-05-09T22:34:15.078Z,11.06
2019-05-09T22:37:28.766Z,11.00
2019-05-09T22:40:42.630Z,10.91
2019-05-09T22:43:56.114Z,10.87
2019-05-09T22:47:10.192Z,10.74
2019-05-09T22:50:23.692Z,10.70
2019-05-09T22:53:37.509Z,10.63
2019-05-09T22:56:51.124Z,10.62
2019-05-09T23:00:05.509Z,10.59
2019-05-09T23:03:18.996Z,10.45
2019-05-09T23:06:32.585Z,10.36
2019-05-09T23:09:46.070Z,10.34
2019-05-09T23:12:59.555Z,10.25
2019-05-09T23:16:13.018Z,10.19
2019-05-09T23:19:26.497Z,10.15
2019-05-09T23:22:39.978Z,10.01
2019-05-09T23:25:53.782Z,9.92
2019-05-09T23:29:07.681Z,9.88
2019-05-09T23:32:29.819Z,9.87
2019-05-09T23:35:43.322Z,9.84
2019-05-09T23:39:16.807Z,9.79
2019-05-09T23:42:30.295Z,9.77
2019-05-09T23:45:43.978Z,9.74
2019-05-09T23:48:57.720Z,9.79
2019-05-09T23:52:11.377Z,9.82
2019-05-09T23:55:42.972Z,9.87
2019-05-09T23:59:14.554Z,10.02
